createdAt,value
2018-03-27T00:01:32.561Z,99.90
2018-03-27T00:04:00.120Z,99.90
2018-03-27T00:06:28.768Z,99.90
2018-03-27T00:08:56.391Z,99.90
2018-03-27T00:11:23.931Z,99.90
2018-03-27T00:13:51.515Z,99.90
2018-03-27T00:16:19.060Z,99.90
2018-03-27T00:18:46.619Z,99.90
2018-03-27T00:21:30.809Z,99.90
2018-03-27T00:26:34.040Z,99.90
2018-03-27T00:29:14.183Z,99.90
2018-03-27T00:31:53.576Z,99.90
2018-03-27T00:34:33.036Z,99.90
2018-03-27T00:37:12.780Z,99.90
2018-03-27T00:39:52.031Z,99.90
2018-03-27T00:42:40.328Z,99.90
2018-03-27T00:45:07.877Z,99.90
2018-03-27T00:47:36.179Z,99.90
2018-03-27T00:50:03.760Z,99.90
2018-03-27T00:52:31.305Z,99.90
2018-03-27T00:54:58.920Z,99.90
2018-03-27T00:57:28.300Z,99.90
2018-03-27T00:59:55.844Z,99.90
2018-03-27T01:02:23.402Z,99.90
2018-03-27T01:04:50.975Z,99.90
2018-03-27T01:07:18.584Z,99.90
2018-03-27T01:09:46.895Z,99.90
2018-03-27T01:12:16.340Z,99.90
2018-03-27T01:14:43.888Z,99.90
2018-03-27T01:17:11.433Z,99.90
2018-03-27T01:19:39.204Z,99.90
2018-03-27T01:22:06.756Z,99.90
2018-03-27T01:24:34.300Z,99.90
2018-03-27T01:27:01.903Z,99.90
2018-03-27T01:29:29.451Z,99.90
2018-03-27T01:31:57.007Z,99.90
2018-03-27T01:34:24.580Z,99.90
2018-03-27T01:36:52.132Z,99.90
2018-03-27T01:39:19.680Z,99.90
2018-03-27T01:41:47.684Z,99.90
2018-03-27T01:44:17.272Z,99.90
2018-03-27T01:46:44.812Z,99.90
2018-03-27T01:49:12.419Z,99.90
2018-03-27T01:51:39.971Z,99.90
2018-03-27T01:54:07.511Z,99.90
2018-03-27T01:56:35.092Z,99.90
2018-03-27T01:59:02.920Z,99.90
2018-03-27T02:01:30.468Z,99.90
2018-03-27T02:03:59.106Z,99.90
2018-03-27T02:06:26.652Z,99.90
2018-03-27T02:08:54.196Z,99.90
2018-03-27T02:11:27.384Z,99.90
2018-03-27T02:14:00.612Z,99.90
2018-03-27T02:16:33.739Z,99.90
2018-03-27T02:19:06.834Z,99.90
2018-03-27T02:21:34.652Z,99.90
2018-03-27T02:24:03.699Z,99.90
2018-03-27T02:26:31.307Z,99.90
2018-03-27T02:28:58.900Z,99.90
2018-03-27T02:31:27.270Z,99.90
2018-03-27T02:33:54.809Z,99.90
2018-03-27T02:36:22.413Z,99.90
2018-03-27T02:38:49.972Z,99.90
2018-03-27T02:41:18.357Z,99.90
2018-03-27T02:43:47.304Z,99.90
2018-03-27T02:46:15.608Z,99.90
2018-03-27T02:48:43.166Z,99.90
2018-03-27T02:51:14.568Z,99.90
2018-03-27T02:53:42.126Z,99.90
2018-03-27T02:56:09.677Z,99.90
2018-03-27T02:58:37.264Z,99.90
2018-03-27T03:01:05.143Z,99.90
2018-03-27T03:03:32.695Z,99.90
2018-03-27T03:06:00.871Z,99.90
2018-03-27T03:08:28.420Z,99.90
2018-03-27T03:10:55.984Z,99.90
2018-03-27T03:13:23.568Z,99.90
2018-03-27T03:15:51.155Z,99.90
2018-03-27T03:18:18.712Z,99.90
2018-03-27T03:20:46.288Z,99.90
2018-03-27T03:23:26.672Z,99.90
2018-03-27T03:28:30.140Z,99.90
2018-03-27T03:30:57.735Z,99.90
2018-03-27T03:33:25.328Z,99.90
2018-03-27T03:35:52.895Z,99.90
2018-03-27T03:38:20.436Z,99.90
2018-03-27T03:40:48.020Z,99.90
2018-03-27T03:43:17.322Z,99.90
2018-03-27T03:45:44.949Z,99.90
2018-03-27T03:48:12.522Z,99.90
2018-03-27T03:50:40.605Z,99.90
2018-03-27T03:53:08.188Z,99.90
2018-03-27T03:55:35.712Z,99.90
2018-03-27T03:58:03.283Z,99.90
2018-03-27T04:00:30.903Z,99.90
2018-03-27T04:02:59.383Z,99.90
2018-03-27T04:05:26.970Z,99.90
2018-03-27T04:07:54.530Z,99.90
2018-03-27T04:10:22.076Z,99.90
2018-03-27T04:12:49.960Z,99.90
2018-03-27T04:15:17.503Z,99.90
2018-03-27T04:17:45.044Z,99.90
2018-03-27T04:20:12.608Z,99.90
2018-03-27T04:22:40.151Z,99.90
2018-03-27T04:25:07.776Z,99.90
2018-03-27T04:27:35.347Z,99.90
2018-03-27T04:30:02.891Z,99.90
2018-03-27T04:32:30.422Z,99.90
2018-03-27T04:34:58.524Z,99.90
2018-03-27T04:37:26.068Z,99.90
2018-03-27T04:39:53.604Z,99.90
2018-03-27T04:42:21.184Z,99.90
2018-03-27T04:44:48.783Z,99.90
2018-03-27T04:47:16.468Z,99.90
2018-03-27T04:49:44.804Z,99.90
2018-03-27T04:52:12.341Z,99.90
2018-03-27T04:54:39.876Z,99.90
2018-03-27T04:57:07.487Z,99.90
2018-03-27T04:59:35.039Z,99.90
2018-03-27T05:02:02.575Z,99.90
2018-03-27T05:04:30.768Z,99.90
2018-03-27T05:06:58.321Z,99.90
2018-03-27T05:09:25.909Z,99.90
2018-03-27T05:11:53.477Z,99.90
2018-03-27T05:14:21.020Z,99.90
2018-03-27T05:16:48.560Z,99.90
2018-03-27T05:19:16.944Z,99.90
2018-03-27T05:21:44.500Z,99.90
2018-03-27T05:24:12.043Z,99.90
2018-03-27T05:26:39.612Z,99.90
2018-03-27T05:29:07.196Z,99.90
2018-03-27T05:31:34.741Z,99.90
2018-03-27T05:34:02.328Z,99.90
2018-03-27T05:36:29.859Z,99.90
2018-03-27T05:38:57.402Z,99.90
2018-03-27T05:41:25.486Z,99.90
2018-03-27T05:43:53.028Z,99.90
2018-03-27T05:46:20.682Z,99.90
2018-03-27T05:48:49.028Z,99.90
2018-03-27T05:51:16.619Z,99.90
2018-03-27T05:53:44.946Z,99.90
2018-03-27T05:56:12.564Z,99.90
2018-03-27T05:58:40.872Z,99.90
2018-03-27T06:01:08.410Z,99.90
2018-03-27T06:03:36.221Z,99.90
2018-03-27T06:06:04.009Z,99.90
2018-03-27T06:08:32.326Z,99.90
2018-03-27T06:10:59.900Z,99.90
2018-03-27T06:13:27.444Z,99.90
2018-03-27T06:15:55.004Z,99.90
2018-03-27T06:18:22.579Z,99.90
2018-03-27T06:20:50.621Z,99.90
2018-03-27T06:23:18.921Z,99.90
2018-03-27T06:25:47.947Z,99.90
2018-03-27T06:28:16.473Z,99.90
2018-03-27T06:30:44.768Z,99.90
2018-03-27T06:33:12.332Z,99.90
2018-03-27T06:35:39.872Z,99.90
2018-03-27T06:38:08.178Z,99.90
2018-03-27T06:40:35.759Z,99.90
2018-03-27T06:43:03.320Z,99.90
2018-03-27T06:45:30.980Z,99.90
2018-03-27T06:47:58.673Z,99.90
2018-03-27T06:50:26.217Z,99.90
2018-03-27T06:52:53.817Z,99.90
2018-03-27T06:55:21.372Z,99.90
2018-03-27T06:57:49.684Z,99.90
2018-03-27T07:00:17.269Z,99.90
2018-03-27T07:05:18.483Z,99.90
2018-03-27T07:07:46.981Z,99.90
2018-03-27T07:10:15.690Z,99.90
2018-03-27T07:12:43.279Z,99.90
2018-03-27T07:15:10.827Z,99.90
2018-03-27T07:17:38.405Z,99.90
2018-03-27T07:23:02.614Z,99.90
2018-03-27T07:25:30.209Z,99.90
2018-03-27T07:27:57.778Z,99.90
2018-03-27T07:30:27.397Z,99.90
2018-03-27T07:35:27.972Z,99.90
2018-03-27T07:37:55.569Z,99.90
2018-03-27T07:40:23.819Z,99.90
2018-03-27T07:42:51.394Z,99.90
2018-03-27T07:45:18.968Z,99.90
2018-03-27T07:47:46.630Z,99.90
2018-03-27T07:50:28.541Z,99.90
2018-03-27T08:02:26.465Z,99.90
2018-03-27T08:04:54.029Z,99.90
2018-03-27T08:07:21.696Z,99.90
2018-03-27T08:09:49.584Z,99.90
2018-03-27T08:12:17.904Z,99.90
2018-03-27T08:14:45.477Z,99.90
2018-03-27T10:49:46.703Z,55.10
2018-03-27T10:52:26.529Z,55.10
2018-03-27T10:57:27.876Z,54.20
2018-03-27T10:59:55.426Z,53.20
2018-03-27T11:02:22.964Z,58.30
2018-03-27T11:04:51.348Z,52.00
2018-03-27T11:07:18.888Z,51.80
2018-03-27T11:09:46.431Z,51.20
2018-03-27T11:12:16.336Z,53.80
2018-03-27T11:14:43.892Z,53.90
2018-03-27T11:17:11.432Z,54.70
2018-03-27T11:19:38.992Z,53.90
2018-03-27T11:22:06.556Z,55.70
2018-03-27T11:24:34.109Z,56.60
2018-03-27T11:27:02.099Z,55.20
2018-03-27T11:29:29.745Z,54.70
2018-03-27T11:31:57.305Z,54.00
2018-03-27T11:34:24.911Z,57.20
2018-03-27T11:36:52.455Z,56.60
2018-03-27T11:39:20.008Z,58.60
2018-03-27T11:41:47.630Z,58.70
2018-03-27T11:44:15.595Z,60.00
2018-03-27T11:46:43.132Z,60.00
2018-03-27T11:49:11.492Z,59.30
2018-03-27T11:51:39.291Z,59.20
2018-03-27T11:54:07.400Z,58.40
2018-03-27T11:56:34.977Z,57.30
2018-03-27T11:59:02.519Z,57.40
2018-03-27T12:01:30.079Z,56.60
2018-03-27T12:03:58.571Z,56.40
2018-03-27T12:06:26.153Z,58.70
2018-03-27T12:08:53.708Z,57.60
2018-03-27T12:11:21.668Z,56.90
2018-03-27T12:13:49.217Z,62.10
2018-03-27T12:16:16.773Z,58.70
2018-03-27T12:18:44.390Z,53.70
2018-03-27T12:21:11.939Z,55.90
2018-03-27T12:23:40.243Z,56.90
2018-03-27T12:26:07.806Z,56.90
2018-03-27T12:31:13.783Z,54.60
2018-03-27T12:33:41.330Z,50.40
2018-03-27T12:36:09.969Z,53.70
2018-03-27T12:38:38.648Z,57.10
2018-03-27T12:41:09.182Z,52.20
2018-03-27T12:43:36.837Z,49.10
2018-03-27T12:46:04.408Z,51.60
2018-03-27T12:48:31.957Z,46.00
2018-03-27T12:50:59.605Z,46.80
2018-03-27T12:53:28.000Z,45.90
2018-03-27T12:55:55.549Z,46.80
2018-03-27T12:58:23.100Z,48.00
2018-03-27T13:00:50.671Z,47.10
2018-03-27T13:03:18.216Z,55.20
2018-03-27T13:05:45.774Z,60.70
2018-03-27T13:08:30.945Z,66.30
2018-03-27T13:13:31.712Z,68.20
2018-03-27T13:15:59.277Z,72.50
2018-03-27T13:18:26.820Z,74.90
2018-03-27T13:20:55.160Z,71.70
2018-03-27T13:23:23.126Z,71.70
2018-03-27T13:25:51.441Z,71.50
2018-03-27T13:28:19.901Z,71.40
2018-03-27T13:30:47.440Z,70.60
2018-03-27T13:33:16.392Z,70.00
2018-03-27T13:35:43.987Z,69.20
2018-03-27T13:38:11.547Z,69.50
2018-03-27T13:40:39.083Z,69.30
2018-03-27T13:43:06.671Z,64.20
2018-03-27T13:45:34.981Z,63.70
2018-03-27T13:48:02.550Z,63.70
2018-03-27T13:50:30.448Z,62.80
2018-03-27T13:52:57.987Z,59.70
2018-03-27T13:55:25.796Z,59.10
2018-03-27T13:57:57.372Z,57.80
2018-03-27T14:00:26.847Z,57.80
2018-03-27T14:02:55.424Z,56.90
2018-03-27T14:05:23.021Z,56.90
2018-03-27T14:07:57.365Z,55.70
2018-03-27T14:10:25.268Z,57.30
2018-03-27T14:12:52.811Z,56.00
2018-03-27T14:15:20.354Z,53.20
2018-03-27T14:17:47.932Z,53.90
2018-03-27T14:20:17.332Z,58.60
2018-03-27T14:22:45.174Z,58.70
2018-03-27T14:25:12.752Z,56.30
2018-03-27T14:27:40.295Z,54.70
2018-03-27T14:30:07.839Z,54.60
2018-03-27T14:32:35.908Z,53.10
2018-03-27T14:35:03.459Z,50.90
2018-03-27T14:37:31.013Z,51.90
2018-03-27T14:39:59.364Z,56.80
2018-03-27T14:42:26.912Z,56.80
2018-03-27T14:44:54.872Z,54.90
2018-03-27T14:47:22.448Z,52.40
2018-03-27T14:49:49.992Z,53.30
2018-03-27T14:52:17.532Z,53.60
2018-03-27T14:54:45.311Z,54.50
2018-03-27T14:57:14.003Z,55.50
2018-03-27T14:59:41.604Z,52.30
2018-03-27T15:02:09.172Z,54.30
2018-03-27T15:04:36.720Z,54.10
2018-03-27T15:07:04.259Z,56.20
2018-03-27T15:09:31.831Z,55.50
2018-03-27T15:11:59.383Z,58.00
2018-03-27T15:14:26.919Z,56.60
2018-03-27T15:16:55.060Z,57.00
2018-03-27T15:19:23.436Z,60.90
2018-03-27T15:21:51.745Z,58.00
2018-03-27T15:24:19.368Z,58.00
2018-03-27T15:26:46.980Z,58.80
2018-03-27T15:29:25.333Z,60.20
2018-03-27T15:35:04.341Z,59.60
2018-03-27T15:37:31.919Z,59.70
2018-03-27T15:39:59.499Z,62.70
2018-03-27T15:42:27.134Z,68.40
2018-03-27T15:44:54.793Z,70.70
2018-03-27T15:47:22.420Z,73.40
2018-03-27T15:49:50.068Z,75.30
2018-03-27T15:52:17.689Z,70.90
2018-03-27T15:54:45.317Z,70.00
2018-03-27T15:57:13.909Z,65.20
2018-03-27T15:59:42.152Z,63.10
2018-03-27T16:02:09.813Z,62.00
2018-03-27T16:04:37.485Z,60.90
2018-03-27T16:07:05.317Z,59.80
2018-03-27T16:09:32.966Z,60.00
2018-03-27T16:12:00.601Z,60.70
2018-03-27T16:14:28.193Z,61.70
2018-03-27T16:16:55.843Z,62.20
2018-03-27T16:19:23.521Z,62.70
2018-03-27T16:21:51.169Z,63.60
2018-03-27T16:24:18.983Z,64.50
2018-03-27T16:29:27.977Z,63.40
2018-03-27T16:31:55.697Z,63.80
2018-03-27T16:34:24.275Z,63.90
2018-03-27T16:36:52.174Z,65.80
2018-03-27T16:39:20.182Z,65.10
2018-03-27T16:41:49.831Z,66.40
2018-03-27T16:44:17.486Z,65.70
2018-03-27T16:46:45.141Z,66.60
2018-03-27T16:49:14.870Z,67.20
2018-03-27T16:51:42.785Z,67.10
2018-03-27T16:54:10.450Z,67.10
2018-03-27T16:56:38.134Z,66.30
2018-03-27T16:59:05.812Z,66.60
2018-03-27T17:01:34.512Z,65.40
2018-03-27T17:04:02.175Z,65.20
2018-03-27T17:06:29.805Z,66.40
2018-03-27T17:08:58.240Z,66.10
2018-03-27T17:11:26.053Z,66.00
2018-03-27T17:13:54.457Z,67.10
2018-03-27T17:16:22.088Z,67.10
2018-03-27T17:18:49.789Z,67.40
2018-03-27T17:21:17.327Z,69.00
2018-03-27T17:23:45.232Z,70.00
2018-03-27T17:26:12.881Z,70.20
2018-03-27T17:28:40.427Z,71.40
2018-03-27T17:31:08.006Z,71.30
2018-03-27T17:33:36.628Z,70.80
2018-03-27T17:36:04.235Z,70.60
2018-03-27T17:38:31.852Z,71.60
2018-03-27T17:40:59.421Z,73.40
2018-03-27T17:43:27.048Z,74.70
2018-03-27T17:45:54.724Z,74.90
2018-03-27T17:48:22.416Z,74.10
2018-03-27T17:50:49.980Z,74.50
2018-03-27T17:53:17.613Z,75.40
2018-03-27T17:55:45.203Z,75.50
2018-03-27T17:58:14.450Z,77.00
2018-03-27T18:00:42.027Z,77.00
2018-03-27T18:03:09.907Z,77.00
2018-03-27T18:05:37.488Z,77.60
2018-03-27T18:08:05.094Z,78.80
2018-03-27T18:10:32.881Z,80.40
2018-03-27T18:13:00.939Z,82.50
2018-03-27T18:15:36.292Z,83.50
2018-03-27T18:18:04.660Z,86.20
2018-03-27T18:20:32.213Z,86.20
2018-03-27T18:23:01.298Z,87.40
2018-03-27T18:25:28.876Z,88.40
2018-03-27T18:27:56.420Z,89.10
2018-03-27T18:30:24.357Z,90.00
2018-03-27T18:32:51.917Z,90.20
2018-03-27T18:35:20.224Z,91.00
2018-03-27T18:37:47.799Z,91.00
2018-03-27T18:40:16.387Z,91.80
2018-03-27T18:42:43.931Z,91.80
2018-03-27T18:45:11.709Z,91.90
2018-03-27T18:47:39.264Z,92.00
2018-03-27T18:50:06.895Z,92.60
2018-03-27T18:52:34.749Z,92.50
2018-03-27T18:55:02.336Z,92.70
2018-03-27T18:57:29.884Z,92.50
2018-03-27T18:59:57.502Z,92.70
2018-03-27T19:02:25.057Z,92.90
2018-03-27T19:04:53.703Z,93.10
2018-03-27T19:07:21.313Z,93.30
2018-03-27T19:09:48.866Z,93.50
2018-03-27T19:12:16.452Z,93.70
2018-03-27T19:14:44.050Z,93.70
2018-03-27T19:17:11.627Z,93.90
2018-03-27T19:19:39.186Z,94.00
2018-03-27T19:22:06.749Z,94.00
2018-03-27T19:24:34.290Z,94.20
2018-03-27T19:27:01.832Z,94.40
2018-03-27T19:29:30.168Z,94.90
2018-03-27T19:31:57.724Z,94.90
2018-03-27T19:34:25.293Z,95.30
2018-03-27T19:36:52.916Z,95.20
2018-03-27T19:39:20.488Z,95.50
2018-03-27T19:41:48.813Z,95.70
2018-03-27T19:44:16.493Z,95.60
2018-03-27T19:46:44.918Z,95.50
2018-03-27T19:49:12.520Z,95.50
2018-03-27T19:51:40.978Z,95.40
2018-03-27T19:54:08.511Z,95.30
2018-03-27T19:56:36.053Z,95.50
2018-03-27T19:59:04.143Z,95.50
2018-03-27T20:01:31.669Z,95.50
2018-03-27T20:04:00.000Z,95.60
2018-03-27T20:06:27.639Z,95.60
2018-03-27T20:08:55.186Z,95.60
2018-03-27T20:11:22.728Z,95.60
2018-03-27T20:13:51.063Z,95.40
2018-03-27T20:16:18.603Z,95.40
2018-03-27T20:18:47.047Z,95.20
2018-03-27T20:21:16.527Z,95.10
2018-03-27T20:23:44.847Z,95.20
2018-03-27T20:26:12.387Z,95.20
2018-03-27T20:28:39.964Z,95.40
2018-03-27T20:31:07.516Z,95.50
2018-03-27T20:33:35.060Z,95.50
2018-03-27T20:36:02.640Z,95.40
2018-03-27T20:38:30.188Z,95.20
2018-03-27T20:40:57.780Z,95.10
2018-03-27T20:43:25.673Z,95.10
2018-03-27T20:45:53.371Z,95.00
2018-03-27T20:48:21.694Z,94.90
2018-03-27T20:50:49.292Z,94.90
2018-03-27T20:53:16.840Z,94.90
2018-03-27T20:55:44.384Z,95.00
2018-03-27T20:58:11.952Z,94.90
2018-03-27T21:00:39.516Z,94.80
2018-03-27T21:03:07.852Z,95.20
2018-03-27T21:05:35.495Z,94.90
2018-03-27T21:08:04.005Z,94.80
2018-03-27T21:10:31.950Z,94.80
2018-03-27T21:13:00.447Z,95.50
2018-03-27T21:15:27.979Z,95.50
2018-03-27T21:17:55.516Z,95.80
2018-03-27T21:20:23.085Z,95.80
2018-03-27T21:22:50.740Z,95.90
2018-03-27T21:25:19.136Z,95.80
2018-03-27T21:27:48.377Z,95.50
2018-03-27T21:30:18.620Z,95.50
2018-03-27T21:32:46.189Z,95.40
2018-03-27T21:35:14.809Z,95.10
2018-03-27T21:37:43.126Z,94.50
2018-03-27T21:40:10.671Z,94.50
2018-03-27T21:42:39.114Z,94.10
2018-03-27T21:45:06.673Z,93.80
2018-03-27T21:47:34.220Z,93.50
2018-03-27T21:50:01.963Z,93.20
2018-03-27T21:52:29.576Z,93.20
2018-03-27T21:54:57.138Z,92.80
2018-03-27T21:57:25.384Z,92.60
2018-03-27T21:59:52.968Z,92.20
2018-03-27T22:02:21.298Z,91.80
2018-03-27T22:04:49.891Z,91.80
2018-03-27T22:07:17.440Z,90.80
2018-03-27T22:09:45.272Z,91.20
2018-03-27T22:12:15.668Z,92.80
2018-03-27T22:14:43.208Z,92.80
2018-03-27T22:17:10.764Z,93.40
2018-03-27T22:19:38.431Z,93.60
2018-03-27T22:22:05.991Z,94.20
2018-03-27T22:24:33.585Z,94.30
2018-03-27T22:27:01.201Z,94.60
2018-03-27T22:29:28.743Z,94.60
2018-03-27T22:31:56.279Z,94.70
2018-03-27T22:34:23.891Z,94.40
2018-03-27T22:36:51.427Z,94.50
2018-03-27T22:39:18.968Z,94.90
2018-03-27T22:41:46.575Z,95.00
2018-03-27T22:44:16.374Z,95.00
2018-03-27T22:46:43.940Z,95.00
2018-03-27T22:49:11.513Z,94.80
2018-03-27T22:51:39.056Z,94.90
2018-03-27T22:54:06.597Z,95.10
2018-03-27T22:56:34.487Z,95.00
2018-03-27T22:59:02.060Z,95.00
2018-03-27T23:01:29.617Z,94.80
2018-03-27T23:03:57.291Z,94.90
2018-03-27T23:06:24.833Z,95.20
2018-03-27T23:08:52.435Z,95.90
2018-03-27T23:11:20.481Z,96.20
2018-03-27T23:13:48.897Z,96.70
2018-03-27T23:16:16.470Z,96.70
2018-03-27T23:18:44.696Z,96.80
2018-03-27T23:21:12.282Z,97.00
2018-03-27T23:23:39.820Z,97.30
2018-03-27T23:26:07.398Z,97.20
2018-03-27T23:28:35.716Z,97.60
2018-03-27T23:31:03.380Z,97.60
2018-03-27T23:33:30.968Z,97.80
2018-03-27T23:35:58.507Z,98.00
2018-03-27T23:38:26.047Z,98.10
2018-03-27T23:40:54.105Z,98.30
2018-03-27T23:43:21.645Z,98.20
2018-03-27T23:45:49.948Z,98.40
2018-03-27T23:48:17.515Z,98.30
2018-03-27T23:50:45.044Z,98.40
2018-03-27T23:53:14.276Z,98.60
2018-03-27T23:55:41.840Z,98.60
2018-03-27T23:58:09.386Z,98.60
